sensor_id;sensor_type;location;lat;lon;timestamp;P1;durP1;ratioP1;P2;durP2;ratioP2
66189;SDS011;52992;52.084;5.412;2023-05-10T00:01:00;100.23;;;87.33;;
66189;SDS011;52992;52.084;5.412;2023-05-10T00:03:27;97.00;;;85.77;;
66189;SDS011;52992;52.084;5.412;2023-05-10T00:05:54;98.63;;;88.10;;
66189;SDS011;52992;52.084;5.412;2023-05-10T00:08:21;102.80;;;89.63;;
66189;SDS011;52992;52.084;5.412;2023-05-10T00:10:48;102.10;;;91.00;;
66189;SDS011;52992;52.084;5.412;2023-05-10T00:13:15;102.43;;;91.83;;
66189;SDS011;52992;52.084;5.412;2023-05-10T00:15:42;112.83;;;90.67;;
66189;SDS011;52992;52.084;5.412;2023-05-10T00:18:09;108.90;;;97.03;;
66189;SDS011;52992;52.084;5.412;2023-05-10T00:20:36;101.90;;;91.27;;
66189;SDS011;52992;52.084;5.412;2023-05-10T00:23:02;123.73;;;89.97;;
66189;SDS011;52992;52.084;5.412;2023-05-10T00:25:29;113.37;;;92.63;;
66189;SDS011;52992;52.084;5.412;2023-05-10T00:27:56;115.17;;;90.97;;
66189;SDS011;52992;52.084;5.412;2023-05-10T00:30:23;121.00;;;92.73;;
66189;SDS011;52992;52.084;5.412;2023-05-10T00:32:50;114.40;;;92.27;;
66189;SDS011;52992;52.084;5.412;2023-05-10T00:35:18;106.30;;;90.60;;
66189;SDS011;52992;52.084;5.412;2023-05-10T00:37:45;111.00;;;96.97;;
66189;SDS011;52992;52.084;5.412;2023-05-10T00:40:12;112.03;;;100.30;;
66189;SDS011;52992;52.084;5.412;2023-05-10T00:42:42;110.23;;;97.33;;
66189;SDS011;52992;52.084;5.412;2023-05-10T00:45:09;111.00;;;98.67;;
66189;SDS011;52992;52.084;5.412;2023-05-10T00:47:37;114.33;;;95.13;;
66189;SDS011;52992;52.084;5.412;2023-05-10T00:50:04;106.93;;;95.53;;
66189;SDS011;52992;52.084;5.412;2023-05-10T00:52:32;126.97;;;99.17;;
66189;SDS011;52992;52.084;5.412;2023-05-10T00:54:59;125.60;;;99.03;;
66189;SDS011;52992;52.084;5.412;2023-05-10T00:57:26;119.17;;;99.03;;
66189;SDS011;52992;52.084;5.412;2023-05-10T00:59:53;110.03;;;98.57;;
66189;SDS011;52992;52.084;5.412;2023-05-10T01:02:20;118.27;;;97.63;;
66189;SDS011;52992;52.084;5.412;2023-05-10T01:04:47;108.87;;;96.83;;
66189;SDS011;52992;52.084;5.412;2023-05-10T01:07:15;102.63;;;91.90;;
66189;SDS011;52992;52.084;5.412;2023-05-10T01:09:43;103.20;;;91.33;;
66189;SDS011;52992;52.084;5.412;2023-05-10T01:12:10;120.10;;;93.63;;
66189;SDS011;52992;52.084;5.412;2023-05-10T01:14:37;121.13;;;94.40;;
66189;SDS011;52992;52.084;5.412;2023-05-10T01:17:05;122.43;;;93.67;;
66189;SDS011;52992;52.084;5.412;2023-05-10T01:19:34;118.17;;;93.53;;
66189;SDS011;52992;52.084;5.412;2023-05-10T01:22:12;104.27;;;92.33;;
66189;SDS011;52992;52.084;5.412;2023-05-10T01:36:30;122.83;;;92.10;;
66189;SDS011;52992;52.084;5.412;2023-05-10T01:39:24;113.47;;;88.50;;
66189;SDS011;52992;52.084;5.412;2023-05-10T01:42:23;114.83;;;87.73;;
66189;SDS011;52992;52.084;5.412;2023-05-10T01:47:54;121.73;;;86.00;;
66189;SDS011;52992;52.084;5.412;2023-05-10T01:50:35;108.50;;;86.70;;
66189;SDS011;52992;52.084;5.412;2023-05-10T01:53:06;124.33;;;87.27;;
66189;SDS011;52992;52.084;5.412;2023-05-10T01:55:35;112.93;;;88.63;;
66189;SDS011;52992;52.084;5.412;2023-05-10T01:58:07;120.30;;;89.13;;
66189;SDS011;52992;52.084;5.412;2023-05-10T02:00:37;134.97;;;92.17;;
66189;SDS011;52992;52.084;5.412;2023-05-10T02:03:08;138.67;;;90.87;;
66189;SDS011;52992;52.084;5.412;2023-05-10T02:05:38;130.40;;;92.50;;
66189;SDS011;52992;52.084;5.412;2023-05-10T02:08:06;125.77;;;93.20;;
66189;SDS011;52992;52.084;5.412;2023-05-10T02:10:35;126.97;;;95.30;;
66189;SDS011;52992;52.084;5.412;2023-05-10T02:13:03;126.30;;;96.10;;
66189;SDS011;52992;52.084;5.412;2023-05-10T02:15:33;145.83;;;95.67;;
66189;SDS011;52992;52.084;5.412;2023-05-10T02:18:01;128.97;;;89.87;;
66189;SDS011;52992;52.084;5.412;2023-05-10T02:20:29;126.73;;;90.70;;
66189;SDS011;52992;52.084;5.412;2023-05-10T02:22:58;136.77;;;94.33;;
66189;SDS011;52992;52.084;5.412;2023-05-10T02:25:28;126.87;;;93.83;;
66189;SDS011;52992;52.084;5.412;2023-05-10T02:27:57;132.40;;;93.20;;
66189;SDS011;52992;52.084;5.412;2023-05-10T02:30:27;121.87;;;94.03;;
66189;SDS011;52992;52.084;5.412;2023-05-10T02:32:57;128.87;;;93.37;;
66189;SDS011;52992;52.084;5.412;2023-05-10T02:35:26;123.13;;;93.70;;
66189;SDS011;52992;52.084;5.412;2023-05-10T02:37:53;115.17;;;90.90;;
66189;SDS011;52992;52.084;5.412;2023-05-10T02:40:21;126.37;;;91.47;;
66189;SDS011;52992;52.084;5.412;2023-05-10T02:42:54;131.17;;;93.20;;
66189;SDS011;52992;52.084;5.412;2023-05-10T02:45:23;123.10;;;94.80;;
66189;SDS011;52992;52.084;5.412;2023-05-10T02:47:54;130.93;;;93.30;;
66189;SDS011;52992;52.084;5.412;2023-05-10T02:50:22;127.57;;;94.97;;
66189;SDS011;52992;52.084;5.412;2023-05-10T02:52:54;156.90;;;95.87;;
66189;SDS011;52992;52.084;5.412;2023-05-10T02:55:26;138.37;;;98.13;;
66189;SDS011;52992;52.084;5.412;2023-05-10T02:58:02;150.10;;;98.60;;
66189;SDS011;52992;52.084;5.412;2023-05-10T03:00:29;161.13;;;96.17;;
66189;SDS011;52992;52.084;5.412;2023-05-10T03:02:57;173.37;;;102.00;;
66189;SDS011;52992;52.084;5.412;2023-05-10T03:05:25;157.67;;;96.47;;
66189;SDS011;52992;52.084;5.412;2023-05-10T03:07:52;171.10;;;98.40;;
66189;SDS011;52992;52.084;5.412;2023-05-10T03:10:20;181.77;;;101.50;;
66189;SDS011;52992;52.084;5.412;2023-05-10T03:13:01;177.10;;;97.90;;
66189;SDS011;52992;52.084;5.412;2023-05-10T03:15:55;167.00;;;97.70;;
66189;SDS011;52992;52.084;5.412;2023-05-10T03:18:53;185.33;;;99.17;;
66189;SDS011;52992;52.084;5.412;2023-05-10T03:21:21;194.77;;;100.47;;
66189;SDS011;52992;52.084;5.412;2023-05-10T03:23:56;202.80;;;100.60;;
66189;SDS011;52992;52.084;5.412;2023-05-10T03:26:29;177.03;;;98.47;;
66189;SDS011;52992;52.084;5.412;2023-05-10T03:29:04;190.30;;;95.33;;
66189;SDS011;52992;52.084;5.412;2023-05-10T03:31:32;179.63;;;101.00;;
66189;SDS011;52992;52.084;5.412;2023-05-10T03:33:59;161.67;;;96.43;;
66189;SDS011;52992;52.084;5.412;2023-05-10T03:36:26;175.93;;;95.87;;
66189;SDS011;52992;52.084;5.412;2023-05-10T03:38:54;173.23;;;96.60;;
66189;SDS011;52992;52.084;5.412;2023-05-10T03:41:21;174.60;;;97.03;;
66189;SDS011;52992;52.084;5.412;2023-05-10T03:43:48;143.27;;;93.67;;
66189;SDS011;52992;52.084;5.412;2023-05-10T03:46:15;158.90;;;91.03;;
66189;SDS011;52992;52.084;5.412;2023-05-10T03:48:42;182.57;;;95.20;;
66189;SDS011;52992;52.084;5.412;2023-05-10T03:51:10;186.60;;;96.73;;
66189;SDS011;52992;52.084;5.412;2023-05-10T03:53:38;168.70;;;96.10;;
66189;SDS011;52992;52.084;5.412;2023-05-10T03:56:05;160.50;;;92.23;;
66189;SDS011;52992;52.084;5.412;2023-05-10T03:58:32;164.87;;;92.03;;
66189;SDS011;52992;52.084;5.412;2023-05-10T04:00:59;140.87;;;88.27;;
66189;SDS011;52992;52.084;5.412;2023-05-10T04:03:26;160.47;;;93.90;;
66189;SDS011;52992;52.084;5.412;2023-05-10T04:06:02;166.23;;;90.60;;
66189;SDS011;52992;52.084;5.412;2023-05-10T04:08:30;178.00;;;93.00;;
66189;SDS011;52992;52.084;5.412;2023-05-10T04:11:07;142.00;;;95.77;;
66189;SDS011;52992;52.084;5.412;2023-05-10T04:13:35;172.93;;;92.37;;
66189;SDS011;52992;52.084;5.412;2023-05-10T04:16:02;159.37;;;96.17;;
66189;SDS011;52992;52.084;5.412;2023-05-10T04:18:29;166.47;;;92.03;;
66189;SDS011;52992;52.084;5.412;2023-05-10T04:20:57;152.63;;;89.57;;
66189;SDS011;52992;52.084;5.412;2023-05-10T04:23:24;179.07;;;93.37;;
66189;SDS011;52992;52.084;5.412;2023-05-10T04:25:51;175.07;;;91.77;;
66189;SDS011;52992;52.084;5.412;2023-05-10T04:28:17;166.03;;;95.27;;
66189;SDS011;52992;52.084;5.412;2023-05-10T04:30:44;203.73;;;94.23;;
66189;SDS011;52992;52.084;5.412;2023-05-10T04:33:11;190.80;;;98.60;;
66189;SDS011;52992;52.084;5.412;2023-05-10T04:35:38;179.07;;;94.27;;
66189;SDS011;52992;52.084;5.412;2023-05-10T04:38:06;176.53;;;96.77;;
66189;SDS011;52992;52.084;5.412;2023-05-10T04:40:33;183.27;;;92.70;;
66189;SDS011;52992;52.084;5.412;2023-05-10T04:43:00;168.33;;;92.07;;
66189;SDS011;52992;52.084;5.412;2023-05-10T04:45:27;168.07;;;90.50;;
66189;SDS011;52992;52.084;5.412;2023-05-10T04:47:54;170.97;;;89.60;;
66189;SDS011;52992;52.084;5.412;2023-05-10T04:50:21;178.87;;;93.07;;
66189;SDS011;52992;52.084;5.412;2023-05-10T04:52:48;191.33;;;93.30;;
66189;SDS011;52992;52.084;5.412;2023-05-10T04:55:15;187.57;;;95.60;;
66189;SDS011;52992;52.084;5.412;2023-05-10T04:57:42;168.20;;;90.00;;
66189;SDS011;52992;52.084;5.412;2023-05-10T05:00:09;172.93;;;92.50;;
66189;SDS011;52992;52.084;5.412;2023-05-10T05:02:36;201.87;;;96.03;;
66189;SDS011;52992;52.084;5.412;2023-05-10T05:05:03;196.70;;;92.60;;
66189;SDS011;52992;52.084;5.412;2023-05-10T05:07:31;178.10;;;92.07;;
66189;SDS011;52992;52.084;5.412;2023-05-10T05:09:58;190.43;;;93.13;;
66189;SDS011;52992;52.084;5.412;2023-05-10T05:12:25;189.07;;;97.57;;
66189;SDS011;52992;52.084;5.412;2023-05-10T05:14:51;192.40;;;94.30;;
66189;SDS011;52992;52.084;5.412;2023-05-10T05:17:18;188.73;;;94.03;;
66189;SDS011;52992;52.084;5.412;2023-05-10T05:19:45;205.97;;;96.87;;
66189;SDS011;52992;52.084;5.412;2023-05-10T05:22:12;209.83;;;96.17;;
66189;SDS011;52992;52.084;5.412;2023-05-10T05:24:39;177.00;;;94.63;;
66189;SDS011;52992;52.084;5.412;2023-05-10T05:27:06;233.57;;;100.67;;
66189;SDS011;52992;52.084;5.412;2023-05-10T05:29:33;214.87;;;97.30;;
66189;SDS011;52992;52.084;5.412;2023-05-10T05:32:00;214.63;;;99.73;;
66189;SDS011;52992;52.084;5.412;2023-05-10T05:34:27;202.53;;;95.40;;
66189;SDS011;52992;52.084;5.412;2023-05-10T05:36:54;182.30;;;97.97;;
66189;SDS011;52992;52.084;5.412;2023-05-10T05:39:20;215.87;;;96.80;;
66189;SDS011;52992;52.084;5.412;2023-05-10T05:41:48;181.43;;;97.23;;
66189;SDS011;52992;52.084;5.412;2023-05-10T05:44:15;190.47;;;94.37;;
66189;SDS011;52992;52.084;5.412;2023-05-10T05:46:42;213.17;;;93.93;;
66189;SDS011;52992;52.084;5.412;2023-05-10T05:49:09;179.77;;;94.27;;
66189;SDS011;52992;52.084;5.412;2023-05-10T05:51:36;232.83;;;98.30;;
66189;SDS011;52992;52.084;5.412;2023-05-10T05:54:02;180.27;;;95.43;;
66189;SDS011;52992;52.084;5.412;2023-05-10T05:56:30;196.70;;;96.50;;
66189;SDS011;52992;52.084;5.412;2023-05-10T05:58:57;204.13;;;92.97;;
66189;SDS011;52992;52.084;5.412;2023-05-10T06:01:24;178.17;;;95.23;;
66189;SDS011;52992;52.084;5.412;2023-05-10T06:03:51;160.20;;;89.90;;
66189;SDS011;52992;52.084;5.412;2023-05-10T06:06:18;170.77;;;95.57;;
66189;SDS011;52992;52.084;5.412;2023-05-10T06:08:45;174.30;;;92.40;;
66189;SDS011;52992;52.084;5.412;2023-05-10T06:11:12;160.17;;;92.60;;
66189;SDS011;52992;52.084;5.412;2023-05-10T06:13:39;181.40;;;92.43;;
66189;SDS011;52992;52.084;5.412;2023-05-10T06:16:06;142.50;;;85.97;;
66189;SDS011;52992;52.084;5.412;2023-05-10T06:18:33;136.53;;;83.43;;
66189;SDS011;52992;52.084;5.412;2023-05-10T06:21:00;132.03;;;84.80;;
66189;SDS011;52992;52.084;5.412;2023-05-10T06:23:27;122.40;;;83.23;;
66189;SDS011;52992;52.084;5.412;2023-05-10T06:25:55;121.47;;;82.93;;
66189;SDS011;52992;52.084;5.412;2023-05-10T06:28:21;124.10;;;83.03;;
66189;SDS011;52992;52.084;5.412;2023-05-10T06:30:48;124.93;;;84.43;;
66189;SDS011;52992;52.084;5.412;2023-05-10T06:33:15;141.33;;;78.30;;
66189;SDS011;52992;52.084;5.412;2023-05-10T06:35:42;123.23;;;80.17;;
66189;SDS011;52992;52.084;5.412;2023-05-10T06:38:09;120.37;;;79.00;;
66189;SDS011;52992;52.084;5.412;2023-05-10T06:40:35;146.80;;;83.17;;
66189;SDS011;52992;52.084;5.412;2023-05-10T06:43:02;122.13;;;79.10;;
66189;SDS011;52992;52.084;5.412;2023-05-10T06:45:29;134.30;;;80.57;;
66189;SDS011;52992;52.084;5.412;2023-05-10T06:47:56;141.33;;;83.60;;
66189;SDS011;52992;52.084;5.412;2023-05-10T06:50:23;152.33;;;86.77;;
66189;SDS011;52992;52.084;5.412;2023-05-10T06:52:50;129.00;;;84.80;;
66189;SDS011;52992;52.084;5.412;2023-05-10T06:55:18;114.23;;;80.63;;
66189;SDS011;52992;52.084;5.412;2023-05-10T06:57:45;105.30;;;80.23;;
66189;SDS011;52992;52.084;5.412;2023-05-10T07:00:12;97.77;;;80.77;;
66189;SDS011;52992;52.084;5.412;2023-05-10T07:02:39;111.33;;;80.00;;
66189;SDS011;52992;52.084;5.412;2023-05-10T07:05:07;99.00;;;81.40;;
66189;SDS011;52992;52.084;5.412;2023-05-10T07:07:34;84.80;;;75.73;;
66189;SDS011;52992;52.084;5.412;2023-05-10T07:10:01;76.07;;;68.70;;
66189;SDS011;52992;52.084;5.412;2023-05-10T07:12:29;71.47;;;64.40;;
66189;SDS011;52992;52.084;5.412;2023-05-10T07:14:56;71.63;;;64.90;;
66189;SDS011;52992;52.084;5.412;2023-05-10T07:17:22;64.87;;;58.80;;
66189;SDS011;52992;52.084;5.412;2023-05-10T07:19:49;67.23;;;61.30;;
66189;SDS011;52992;52.084;5.412;2023-05-10T07:22:16;68.03;;;62.20;;
66189;SDS011;52992;52.084;5.412;2023-05-10T07:24:43;65.70;;;60.43;;
66189;SDS011;52992;52.084;5.412;2023-05-10T07:27:10;62.90;;;58.03;;
66189;SDS011;52992;52.084;5.412;2023-05-10T07:29:38;64.23;;;58.97;;
66189;SDS011;52992;52.084;5.412;2023-05-10T07:32:05;67.63;;;62.47;;
66189;SDS011;52992;52.084;5.412;2023-05-10T07:34:32;62.30;;;57.40;;
66189;SDS011;52992;52.084;5.412;2023-05-10T07:36:59;65.70;;;60.80;;
66189;SDS011;52992;52.084;5.412;2023-05-10T07:39:27;64.03;;;59.13;;
66189;SDS011;52992;52.084;5.412;2023-05-10T07:41:54;66.27;;;61.37;;
66189;SDS011;52992;52.084;5.412;2023-05-10T07:44:21;64.17;;;59.27;;
66189;SDS011;52992;52.084;5.412;2023-05-10T07:46:49;66.00;;;61.13;;
66189;SDS011;52992;52.084;5.412;2023-05-10T07:49:16;62.40;;;57.53;;
66189;SDS011;52992;52.084;5.412;2023-05-10T07:51:43;66.30;;;61.50;;
66189;SDS011;52992;52.084;5.412;2023-05-10T07:54:10;62.53;;;58.03;;
66189;SDS011;52992;52.084;5.412;2023-05-10T07:56:37;65.70;;;60.80;;
66189;SDS011;52992;52.084;5.412;2023-05-10T07:59:06;62.50;;;57.53;;
66189;SDS011;52992;52.084;5.412;2023-05-10T08:01:35;62.97;;;58.00;;
66189;SDS011;52992;52.084;5.412;2023-05-10T08:04:02;60.70;;;56.60;;
66189;SDS011;52992;52.084;5.412;2023-05-10T08:06:29;60.70;;;55.90;;
66189;SDS011;52992;52.084;5.412;2023-05-10T08:08:56;63.73;;;59.00;;
66189;SDS011;52992;52.084;5.412;2023-05-10T08:11:23;58.87;;;54.57;;
66189;SDS011;52992;52.084;5.412;2023-05-10T08:13:52;62.43;;;57.83;;
66189;SDS011;52992;52.084;5.412;2023-05-10T08:16:19;64.20;;;59.40;;
66189;SDS011;52992;52.084;5.412;2023-05-10T08:18:46;62.23;;;57.53;;
66189;SDS011;52992;52.084;5.412;2023-05-10T08:21:14;64.47;;;59.50;;
66189;SDS011;52992;52.084;5.412;2023-05-10T08:23:41;64.87;;;59.73;;
66189;SDS011;52992;52.084;5.412;2023-05-10T08:26:10;65.03;;;60.50;;
66189;SDS011;52992;52.084;5.412;2023-05-10T08:28:37;64.70;;;59.53;;
66189;SDS011;52992;52.084;5.412;2023-05-10T08:31:04;64.60;;;60.33;;
66189;SDS011;52992;52.084;5.412;2023-05-10T08:33:32;66.33;;;61.63;;
66189;SDS011;52992;52.084;5.412;2023-05-10T08:35:59;61.40;;;56.97;;
66189;SDS011;52992;52.084;5.412;2023-05-10T08:38:25;68.20;;;63.13;;
66189;SDS011;52992;52.084;5.412;2023-05-10T08:40:53;69.33;;;64.93;;
66189;SDS011;52992;52.084;5.412;2023-05-10T08:43:28;65.43;;;60.67;;
66189;SDS011;52992;52.084;5.412;2023-05-10T08:45:56;67.43;;;62.87;;
66189;SDS011;52992;52.084;5.412;2023-05-10T08:48:26;67.77;;;62.77;;
66189;SDS011;52992;52.084;5.412;2023-05-10T08:50:56;67.97;;;63.33;;
66189;SDS011;52992;52.084;5.412;2023-05-10T08:53:26;68.53;;;63.43;;
66189;SDS011;52992;52.084;5.412;2023-05-10T08:55:55;62.40;;;57.63;;
66189;SDS011;52992;52.084;5.412;2023-05-10T08:58:21;57.03;;;52.77;;
66189;SDS011;52992;52.084;5.412;2023-05-10T09:00:49;57.30;;;53.03;;
66189;SDS011;52992;52.084;5.412;2023-05-10T09:03:19;63.67;;;59.27;;
66189;SDS011;52992;52.084;5.412;2023-05-10T09:05:46;59.43;;;54.97;;
66189;SDS011;52992;52.084;5.412;2023-05-10T09:08:13;68.03;;;63.07;;
66189;SDS011;52992;52.084;5.412;2023-05-10T09:10:43;64.83;;;60.33;;
66189;SDS011;52992;52.084;5.412;2023-05-10T09:13:10;68.47;;;64.10;;
66189;SDS011;52992;52.084;5.412;2023-05-10T09:15:38;68.37;;;63.83;;
66189;SDS011;52992;52.084;5.412;2023-05-10T09:18:05;69.53;;;64.83;;
66189;SDS011;52992;52.084;5.412;2023-05-10T09:20:32;70.77;;;65.97;;
66189;SDS011;52992;52.084;5.412;2023-05-10T09:22:59;71.67;;;66.87;;
66189;SDS011;52992;52.084;5.412;2023-05-10T09:25:26;70.30;;;65.70;;
66189;SDS011;52992;52.084;5.412;2023-05-10T09:27:53;73.27;;;68.47;;
66189;SDS011;52992;52.084;5.412;2023-05-10T09:32:52;58.10;;;54.53;;
66189;SDS011;52992;52.084;5.412;2023-05-10T09:35:20;62.10;;;58.47;;
66189;SDS011;52992;52.084;5.412;2023-05-10T09:37:52;59.90;;;56.50;;
66189;SDS011;52992;52.084;5.412;2023-05-10T09:40:21;64.13;;;60.00;;
66189;SDS011;52992;52.084;5.412;2023-05-10T09:42:51;65.90;;;62.17;;
66189;SDS011;52992;52.084;5.412;2023-05-10T09:45:22;61.43;;;58.03;;
66189;SDS011;52992;52.084;5.412;2023-05-10T09:47:49;63.27;;;59.37;;
66189;SDS011;52992;52.084;5.412;2023-05-10T09:50:17;54.17;;;50.93;;
66189;SDS011;52992;52.084;5.412;2023-05-10T09:52:48;62.63;;;58.43;;
66189;SDS011;52992;52.084;5.412;2023-05-10T09:55:18;64.30;;;60.10;;
66189;SDS011;52992;52.084;5.412;2023-05-10T09:57:56;59.57;;;56.03;;
66189;SDS011;52992;52.084;5.412;2023-05-10T10:00:26;55.57;;;51.97;;
66189;SDS011;52992;52.084;5.412;2023-05-10T10:02:54;54.73;;;51.73;;
66189;SDS011;52992;52.084;5.412;2023-05-10T10:05:29;59.10;;;55.63;;
66189;SDS011;52992;52.084;5.412;2023-05-10T10:08:01;55.90;;;52.70;;
66189;SDS011;52992;52.084;5.412;2023-05-10T10:10:33;48.33;;;45.67;;
66189;SDS011;52992;52.084;5.412;2023-05-10T10:13:00;54.30;;;51.20;;
66189;SDS011;52992;52.084;5.412;2023-05-10T10:15:27;49.30;;;46.50;;
66189;SDS011;52992;52.084;5.412;2023-05-10T10:17:54;64.40;;;60.83;;
66189;SDS011;52992;52.084;5.412;2023-05-10T10:20:22;61.20;;;57.83;;
66189;SDS011;52992;52.084;5.412;2023-05-10T10:22:49;66.73;;;62.70;;
66189;SDS011;52992;52.084;5.412;2023-05-10T10:25:16;68.30;;;64.67;;
66189;SDS011;52992;52.084;5.412;2023-05-10T10:36:00;53.00;;;49.90;;
66189;SDS011;52992;52.084;5.412;2023-05-10T10:39:05;58.73;;;55.33;;
66189;SDS011;52992;52.084;5.412;2023-05-10T10:41:28;60.03;;;56.43;;
66189;SDS011;52992;52.084;5.412;2023-05-10T10:49:42;54.33;;;51.17;;
66189;SDS011;52992;52.084;5.412;2023-05-10T10:52:24;61.87;;;58.13;;
66189;SDS011;52992;52.084;5.412;2023-05-10T10:57:54;56.77;;;53.47;;
66189;SDS011;52992;52.084;5.412;2023-05-10T11:00:31;62.70;;;59.30;;
66189;SDS011;52992;52.084;5.412;2023-05-10T11:03:08;64.73;;;61.13;;
66189;SDS011;52992;52.084;5.412;2023-05-10T11:05:46;66.67;;;63.00;;
66189;SDS011;52992;52.084;5.412;2023-05-10T11:08:30;64.83;;;60.97;;
66189;SDS011;52992;52.084;5.412;2023-05-10T11:13:30;54.43;;;51.40;;
66189;SDS011;52992;52.084;5.412;2023-05-10T11:15:59;57.00;;;53.97;;
66189;SDS011;52992;52.084;5.412;2023-05-10T11:18:37;58.67;;;55.43;;
66189;SDS011;52992;52.084;5.412;2023-05-10T11:21:04;48.63;;;45.83;;
66189;SDS011;52992;52.084;5.412;2023-05-10T11:23:32;59.40;;;56.17;;
66189;SDS011;52992;52.084;5.412;2023-05-10T11:26:14;66.83;;;63.17;;
66189;SDS011;52992;52.084;5.412;2023-05-10T11:28:41;62.63;;;59.23;;
66189;SDS011;52992;52.084;5.412;2023-05-10T11:31:15;79.87;;;75.90;;
66189;SDS011;52992;52.084;5.412;2023-05-10T11:36:15;81.77;;;77.77;;
66189;SDS011;52992;52.084;5.412;2023-05-10T11:38:43;85.63;;;81.53;;
66189;SDS011;52992;52.084;5.412;2023-05-10T11:41:10;78.90;;;74.90;;
66189;SDS011;52992;52.084;5.412;2023-05-10T11:43:39;55.47;;;52.50;;
66189;SDS011;52992;52.084;5.412;2023-05-10T11:46:06;53.20;;;50.50;;
66189;SDS011;52992;52.084;5.412;2023-05-10T11:48:41;59.47;;;56.37;;
66189;SDS011;52992;52.084;5.412;2023-05-10T11:51:09;64.83;;;61.23;;
66189;SDS011;52992;52.084;5.412;2023-05-10T11:53:37;71.10;;;67.57;;
66189;SDS011;52992;52.084;5.412;2023-05-10T11:56:08;49.23;;;46.63;;
66189;SDS011;52992;52.084;5.412;2023-05-10T11:58:38;41.73;;;39.53;;
66189;SDS011;52992;52.084;5.412;2023-05-10T12:01:06;44.03;;;41.70;;
66189;SDS011;52992;52.084;5.412;2023-05-10T12:03:34;65.40;;;62.10;;
66189;SDS011;52992;52.084;5.412;2023-05-10T12:06:02;74.90;;;71.50;;
66189;SDS011;52992;52.084;5.412;2023-05-10T12:08:30;83.67;;;79.83;;
66189;SDS011;52992;52.084;5.412;2023-05-10T12:11:04;71.90;;;68.60;;
66189;SDS011;52992;52.084;5.412;2023-05-10T12:13:40;65.10;;;61.77;;
66189;SDS011;52992;52.084;5.412;2023-05-10T12:16:28;56.57;;;53.97;;
66189;SDS011;52992;52.084;5.412;2023-05-10T12:18:56;83.70;;;79.83;;
66189;SDS011;52992;52.084;5.412;2023-05-10T12:21:24;68.93;;;65.40;;
66189;SDS011;52992;52.084;5.412;2023-05-10T12:23:54;52.37;;;49.77;;
66189;SDS011;52992;52.084;5.412;2023-05-10T12:26:25;92.63;;;88.70;;
66189;SDS011;52992;52.084;5.412;2023-05-10T12:29:01;90.70;;;86.90;;
66189;SDS011;52992;52.084;5.412;2023-05-10T12:31:58;84.80;;;80.93;;
66189;SDS011;52992;52.084;5.412;2023-05-10T12:34:35;57.23;;;54.27;;
66189;SDS011;52992;52.084;5.412;2023-05-10T12:37:03;47.40;;;45.17;;
66189;SDS011;52992;52.084;5.412;2023-05-10T12:39:40;86.43;;;82.47;;
66189;SDS011;52992;52.084;5.412;2023-05-10T12:42:08;93.93;;;89.63;;
66189;SDS011;52992;52.084;5.412;2023-05-10T12:44:36;91.70;;;87.60;;
66189;SDS011;52992;52.084;5.412;2023-05-10T12:47:03;77.53;;;74.13;;
66189;SDS011;52992;52.084;5.412;2023-05-10T12:49:30;81.03;;;77.33;;
66189;SDS011;52992;52.084;5.412;2023-05-10T12:51:57;86.77;;;83.07;;
66189;SDS011;52992;52.084;5.412;2023-05-10T12:54:23;86.17;;;82.47;;
66189;SDS011;52992;52.084;5.412;2023-05-10T12:56:50;89.73;;;85.73;;
66189;SDS011;52992;52.084;5.412;2023-05-10T12:59:17;81.20;;;77.70;;
66189;SDS011;52992;52.084;5.412;2023-05-10T13:01:44;85.83;;;81.83;;
66189;SDS011;52992;52.084;5.412;2023-05-10T13:04:11;90.97;;;86.93;;
66189;SDS011;52992;52.084;5.412;2023-05-10T13:06:38;89.83;;;85.70;;
66189;SDS011;52992;52.084;5.412;2023-05-10T13:09:05;85.67;;;81.57;;
66189;SDS011;52992;52.084;5.412;2023-05-10T13:11:32;85.33;;;81.53;;
66189;SDS011;52992;52.084;5.412;2023-05-10T13:13:59;88.60;;;84.70;;
66189;SDS011;52992;52.084;5.412;2023-05-10T13:16:26;90.10;;;86.00;;
66189;SDS011;52992;52.084;5.412;2023-05-10T13:18:53;89.57;;;85.33;;
66189;SDS011;52992;52.084;5.412;2023-05-10T13:21:20;91.13;;;86.77;;
66189;SDS011;52992;52.084;5.412;2023-05-10T13:23:47;84.47;;;80.57;;
66189;SDS011;52992;52.084;5.412;2023-05-10T13:26:14;84.93;;;80.73;;
66189;SDS011;52992;52.084;5.412;2023-05-10T13:28:41;79.90;;;76.07;;
66189;SDS011;52992;52.084;5.412;2023-05-10T13:31:07;78.53;;;74.70;;
66189;SDS011;52992;52.084;5.412;2023-05-10T13:33:34;81.63;;;77.13;;
66189;SDS011;52992;52.084;5.412;2023-05-10T13:36:01;77.97;;;73.80;;
66189;SDS011;52992;52.084;5.412;2023-05-10T13:38:28;80.93;;;76.93;;
66189;SDS011;52992;52.084;5.412;2023-05-10T13:40:55;78.43;;;74.43;;
66189;SDS011;52992;52.084;5.412;2023-05-10T13:43:22;75.37;;;71.37;;
66189;SDS011;52992;52.084;5.412;2023-05-10T13:45:49;73.47;;;69.27;;
66189;SDS011;52992;52.084;5.412;2023-05-10T13:48:16;84.27;;;79.27;;
66189;SDS011;52992;52.084;5.412;2023-05-10T13:50:43;80.13;;;76.13;;
66189;SDS011;52992;52.084;5.412;2023-05-10T13:53:10;79.13;;;75.13;;
66189;SDS011;52992;52.084;5.412;2023-05-10T13:55:37;74.57;;;70.67;;
66189;SDS011;52992;52.084;5.412;2023-05-10T13:58:04;71.67;;;68.13;;
66189;SDS011;52992;52.084;5.412;2023-05-10T14:00:31;77.97;;;74.17;;
66189;SDS011;52992;52.084;5.412;2023-05-10T14:02:58;74.67;;;70.93;;
66189;SDS011;52992;52.084;5.412;2023-05-10T14:05:25;75.57;;;71.70;;
66189;SDS011;52992;52.084;5.412;2023-05-10T14:07:52;74.30;;;70.53;;
66189;SDS011;52992;52.084;5.412;2023-05-10T14:10:19;72.03;;;68.43;;
66189;SDS011;52992;52.084;5.412;2023-05-10T14:12:46;73.80;;;69.80;;
66189;SDS011;52992;52.084;5.412;2023-05-10T14:15:13;73.23;;;69.37;;
66189;SDS011;52992;52.084;5.412;2023-05-10T14:17:41;72.60;;;68.60;;
66189;SDS011;52992;52.084;5.412;2023-05-10T14:20:08;75.93;;;72.10;;
66189;SDS011;52992;52.084;5.412;2023-05-10T14:22:35;78.27;;;73.87;;
66189;SDS011;52992;52.084;5.412;2023-05-10T14:25:02;74.37;;;69.97;;
66189;SDS011;52992;52.084;5.412;2023-05-10T14:27:29;77.00;;;72.93;;
66189;SDS011;52992;52.084;5.412;2023-05-10T14:29:56;80.53;;;76.03;;
66189;SDS011;52992;52.084;5.412;2023-05-10T14:32:23;80.07;;;75.37;;
66189;SDS011;52992;52.084;5.412;2023-05-10T14:34:50;79.57;;;74.90;;
66189;SDS011;52992;52.084;5.412;2023-05-10T14:37:17;77.50;;;73.30;;
66189;SDS011;52992;52.084;5.412;2023-05-10T14:39:44;78.07;;;73.23;;
66189;SDS011;52992;52.084;5.412;2023-05-10T14:42:11;76.13;;;71.63;;
66189;SDS011;52992;52.084;5.412;2023-05-10T14:44:38;78.77;;;74.20;;
66189;SDS011;52992;52.084;5.412;2023-05-10T14:47:05;76.33;;;71.97;;
66189;SDS011;52992;52.084;5.412;2023-05-10T14:49:34;77.43;;;72.60;;
66189;SDS011;52992;52.084;5.412;2023-05-10T14:52:01;76.43;;;72.00;;
66189;SDS011;52992;52.084;5.412;2023-05-10T14:54:29;75.77;;;71.23;;
66189;SDS011;52992;52.084;5.412;2023-05-10T14:56:56;78.53;;;73.83;;
66189;SDS011;52992;52.084;5.412;2023-05-10T14:59:22;76.60;;;71.87;;
66189;SDS011;52992;52.084;5.412;2023-05-10T15:01:50;75.77;;;71.37;;
66189;SDS011;52992;52.084;5.412;2023-05-10T15:04:17;76.97;;;72.10;;